createdAt,value
2018-09-10T00:00:31.609Z,13.60
2018-09-10T00:01:38.449Z,13.57
2018-09-10T00:02:45.812Z,13.64
2018-09-10T00:03:52.289Z,13.65
2018-09-10T00:04:58.648Z,13.59
2018-09-10T00:06:06.060Z,13.75
2018-09-10T00:07:12.232Z,13.77
2018-09-10T00:08:18.510Z,13.70
2018-09-10T00:09:25.712Z,13.60
2018-09-10T00:10:32.077Z,13.66
2018-09-10T00:11:38.023Z,13.76
2018-09-10T00:12:44.712Z,13.92
2018-09-10T00:13:52.408Z,13.96
2018-09-10T00:14:59.083Z,13.71
2018-09-10T00:16:05.470Z,13.62
2018-09-10T00:17:11.766Z,13.71
2018-09-10T00:18:18.192Z,13.63
2018-09-10T00:19:24.603Z,13.60
2018-09-10T00:20:30.947Z,13.53
2018-09-10T00:21:37.320Z,13.62
2018-09-10T00:22:43.727Z,13.94
2018-09-10T00:23:49.785Z,13.85
2018-09-10T00:24:56.260Z,13.84
2018-09-10T00:26:02.665Z,14.02
2018-09-10T00:27:08.986Z,13.91
2018-09-10T00:28:15.423Z,13.92
2018-09-10T00:29:21.812Z,13.76
2018-09-10T00:30:28.234Z,13.54
2018-09-10T00:31:34.540Z,13.50
2018-09-10T00:32:40.886Z,13.68
2018-09-10T00:33:47.274Z,13.68
2018-09-10T00:34:54.721Z,13.70
2018-09-10T00:36:00.675Z,13.67
2018-09-10T00:37:06.392Z,13.51
2018-09-10T00:38:12.772Z,13.55
2018-09-10T00:39:19.119Z,13.33
2018-09-10T00:40:25.547Z,13.26
2018-09-10T00:41:31.881Z,13.28
2018-09-10T00:42:38.072Z,13.26
2018-09-10T00:43:44.367Z,13.28
2018-09-10T00:44:50.746Z,13.24
2018-09-10T00:45:58.166Z,13.25
2018-09-10T00:47:04.246Z,13.23
2018-09-10T00:48:10.791Z,13.25
2018-09-10T00:49:17.192Z,13.30
2018-09-10T00:50:23.426Z,13.27
2018-09-10T00:51:29.786Z,13.18
2018-09-10T00:52:36.212Z,13.15
2018-09-10T00:53:42.250Z,13.14
2018-09-10T00:54:48.635Z,13.11
2018-09-10T00:55:54.884Z,13.10
2018-09-10T00:57:01.252Z,13.08
2018-09-10T00:58:07.388Z,13.09
2018-09-10T00:59:13.487Z,12.99
2018-09-10T01:00:19.885Z,12.88
2018-09-10T01:01:26.351Z,13.06
2018-09-10T01:02:32.528Z,13.22
2018-09-10T01:03:38.920Z,13.28
2018-09-10T01:04:45.321Z,13.23
2018-09-10T01:05:51.632Z,13.18
2018-09-10T01:06:58.090Z,13.08
2018-09-10T01:08:03.919Z,13.08
2018-09-10T01:09:09.693Z,13.10
2018-09-10T01:10:15.962Z,13.09
2018-09-10T01:11:22.185Z,12.99
2018-09-10T01:12:28.591Z,12.94
2018-09-10T01:13:35.008Z,12.95
2018-09-10T01:14:41.425Z,12.96
2018-09-10T01:15:47.874Z,13.00
2018-09-10T01:16:54.137Z,12.93
2018-09-10T01:18:00.272Z,12.90
2018-09-10T01:19:06.352Z,12.82
2018-09-10T01:20:12.774Z,12.93
2018-09-10T01:21:18.908Z,13.15
2018-09-10T01:22:25.303Z,13.11
2018-09-10T01:23:31.604Z,13.12
2018-09-10T01:24:38.013Z,13.05
2018-09-10T01:25:44.436Z,13.00
2018-09-10T01:26:50.775Z,13.00
2018-09-10T01:27:56.683Z,13.05
2018-09-10T01:29:02.913Z,13.05
2018-09-10T01:30:08.698Z,13.04
2018-09-10T01:31:14.992Z,13.01
2018-09-10T01:32:21.293Z,12.93
2018-09-10T01:33:27.976Z,12.79
2018-09-10T01:36:05.945Z,12.54
2018-09-10T01:37:11.976Z,12.52
2018-09-10T01:38:17.983Z,12.51
2018-09-10T01:39:24.441Z,12.54
2018-09-10T01:40:30.557Z,12.57
2018-09-10T01:41:36.971Z,12.61
2018-09-10T01:42:43.256Z,12.63
2018-09-10T01:43:49.596Z,12.66
2018-09-10T01:44:55.880Z,12.70
2018-09-10T01:46:02.229Z,12.73
2018-09-10T01:47:08.503Z,12.70
2018-09-10T01:48:14.564Z,12.70
2018-09-10T01:49:20.918Z,12.63
2018-09-10T01:50:26.911Z,12.63
2018-09-10T01:51:33.391Z,12.58
2018-09-10T01:52:40.084Z,12.54
2018-09-10T01:53:46.514Z,12.56
2018-09-10T01:54:52.908Z,12.53
2018-09-10T01:55:59.275Z,12.49
2018-09-10T01:57:04.748Z,12.40
2018-09-10T01:58:11.225Z,12.42
2018-09-10T01:59:17.565Z,12.45
2018-09-10T02:00:24.534Z,12.41
2018-09-10T02:01:31.013Z,12.41
2018-09-10T02:02:37.413Z,12.43
2018-09-10T02:03:43.828Z,12.38
2018-09-10T02:04:50.216Z,12.31
2018-09-10T02:05:56.323Z,12.25
2018-09-10T02:07:02.463Z,12.03
2018-09-10T02:08:08.728Z,11.96
2018-09-10T02:09:15.790Z,12.03
2018-09-10T02:10:22.246Z,12.06
2018-09-10T02:11:28.931Z,12.04
2018-09-10T02:12:35.336Z,12.08
2018-09-10T02:13:41.624Z,12.06
2018-09-10T02:14:47.984Z,12.08
2018-09-10T02:15:54.377Z,12.09
2018-09-10T02:17:00.720Z,12.08
2018-09-10T02:18:06.638Z,11.99
2018-09-10T02:19:13.115Z,12.01
2018-09-10T02:20:19.382Z,12.00
2018-09-10T02:21:25.684Z,12.02
2018-09-10T02:22:32.029Z,12.03
2018-09-10T02:23:38.340Z,12.00
2018-09-10T02:24:45.676Z,12.00
2018-09-10T02:25:52.300Z,12.10
2018-09-10T02:26:58.743Z,12.06
2018-09-10T02:28:04.668Z,12.02
2018-09-10T02:29:11.191Z,12.09
2018-09-10T02:30:17.861Z,12.13
2018-09-10T02:31:24.209Z,12.17
2018-09-10T02:32:30.600Z,12.20
2018-09-10T02:33:36.930Z,12.16
2018-09-10T02:34:43.284Z,12.11
2018-09-10T02:35:50.321Z,12.13
2018-09-10T02:36:56.740Z,12.16
2018-09-10T02:38:03.157Z,12.24
2018-09-10T02:39:09.224Z,12.28
2018-09-10T02:40:15.688Z,12.32
2018-09-10T02:41:21.780Z,12.29
2018-09-10T02:42:28.124Z,12.26
2018-09-10T02:43:34.531Z,12.23
2018-09-10T02:44:43.401Z,12.18
2018-09-10T02:45:49.592Z,12.11
2018-09-10T02:46:56.652Z,12.11
2018-09-10T02:48:03.027Z,12.12
2018-09-10T02:49:09.441Z,12.11
2018-09-10T02:50:16.772Z,12.01
2018-09-10T02:51:22.778Z,11.97
2018-09-10T02:52:28.933Z,12.00
2018-09-10T02:53:35.191Z,11.98
2018-09-10T02:54:41.626Z,11.96
2018-09-10T02:55:48.029Z,11.89
2018-09-10T02:56:54.479Z,11.89
2018-09-10T02:58:05.592Z,11.86
2018-09-10T02:59:12.072Z,11.98
2018-09-10T03:00:17.498Z,12.06
2018-09-10T03:01:23.853Z,12.07
2018-09-10T03:02:30.246Z,12.12
2018-09-10T03:03:35.761Z,12.09
2018-09-10T03:04:42.016Z,12.23
2018-09-10T03:05:48.879Z,12.40
2018-09-10T03:06:55.366Z,12.37
2018-09-10T03:08:01.798Z,12.19
2018-09-10T03:09:07.896Z,12.02
2018-09-10T03:10:15.223Z,11.97
2018-09-10T03:11:21.520Z,12.02
2018-09-10T03:12:27.532Z,11.91
2018-09-10T03:13:33.924Z,11.83
2018-09-10T03:14:40.299Z,11.86
2018-09-10T03:15:47.695Z,11.84
2018-09-10T03:16:53.908Z,11.78
2018-09-10T03:18:00.280Z,11.80
2018-09-10T03:19:06.644Z,11.94
2018-09-10T03:20:12.933Z,12.02
2018-09-10T03:21:19.034Z,11.96
2018-09-10T03:22:25.492Z,11.87
2018-09-10T03:23:31.539Z,11.96
2018-09-10T03:24:37.436Z,12.10
2018-09-10T03:25:43.728Z,12.16
2018-09-10T03:26:50.113Z,12.15
2018-09-10T03:27:56.437Z,12.10
2018-09-10T03:29:02.728Z,12.08
2018-09-10T03:30:08.357Z,12.12
2018-09-10T03:31:14.755Z,12.10
2018-09-10T03:32:21.972Z,12.21
2018-09-10T03:33:28.340Z,12.23
2018-09-10T03:34:34.889Z,12.10
2018-09-10T03:35:41.325Z,12.06
2018-09-10T03:36:47.737Z,12.08
2018-09-10T03:37:54.182Z,12.03
2018-09-10T03:39:00.564Z,12.13
2018-09-10T03:40:06.315Z,12.27
2018-09-10T03:41:12.723Z,12.29
2018-09-10T03:42:19.137Z,12.18
2018-09-10T03:43:25.523Z,12.07
2018-09-10T03:44:31.949Z,12.01
2018-09-10T03:45:38.317Z,12.07
2018-09-10T03:46:44.750Z,12.16
2018-09-10T03:47:51.241Z,12.06
2018-09-10T03:48:58.169Z,12.04
2018-09-10T03:50:04.217Z,12.01
2018-09-10T03:51:10.515Z,12.03
2018-09-10T03:52:16.898Z,12.00
2018-09-10T03:53:23.720Z,12.02
2018-09-10T03:54:30.155Z,12.07
2018-09-10T03:55:36.567Z,11.97
2018-09-10T03:56:42.971Z,11.94
2018-09-10T03:57:49.285Z,11.95
2018-09-10T03:58:55.658Z,11.92
2018-09-10T04:00:01.981Z,11.98
2018-09-10T04:01:08.118Z,11.97
2018-09-10T04:02:14.351Z,11.92
2018-09-10T04:03:20.676Z,11.93
2018-09-10T04:04:27.093Z,11.96
2018-09-10T04:05:33.347Z,11.93
2018-09-10T04:06:39.813Z,11.89
2018-09-10T04:07:46.136Z,11.94
2018-09-10T04:08:52.558Z,11.92
2018-09-10T04:09:58.958Z,11.98
2018-09-10T04:11:06.300Z,12.04
2018-09-10T04:12:13.266Z,11.96
2018-09-10T04:13:19.781Z,11.95
2018-09-10T04:14:26.150Z,11.92
2018-09-10T04:15:32.537Z,11.98
2018-09-10T04:16:38.825Z,11.94
2018-09-10T04:17:47.035Z,11.93
2018-09-10T04:18:53.327Z,12.04
2018-09-10T04:19:59.428Z,12.15
2018-09-10T04:21:05.590Z,12.09
2018-09-10T04:22:15.038Z,11.93
2018-09-10T04:23:21.416Z,11.90
2018-09-10T04:24:27.837Z,11.84
2018-09-10T04:25:34.242Z,11.78
2018-09-10T04:26:40.554Z,11.79
2018-09-10T04:27:46.877Z,11.80
2018-09-10T04:28:53.188Z,11.81
2018-09-10T04:29:59.618Z,11.75
2018-09-10T04:31:06.500Z,11.70
2018-09-10T04:32:12.785Z,11.72
2018-09-10T04:33:19.049Z,11.78
2018-09-10T04:34:25.485Z,11.78
2018-09-10T04:35:31.922Z,11.74
2018-09-10T04:36:38.321Z,11.72
2018-09-10T04:37:44.630Z,11.71
2018-09-10T04:38:51.023Z,11.76
2018-09-10T04:39:57.452Z,11.73
2018-09-10T04:41:03.398Z,11.72
2018-09-10T04:42:09.856Z,11.82
2018-09-10T04:43:16.304Z,12.01
2018-09-10T04:44:22.196Z,12.10
2018-09-10T04:45:28.572Z,12.16
2018-09-10T04:46:34.926Z,12.25
2018-09-10T04:47:41.301Z,12.21
2018-09-10T04:48:48.165Z,12.20
2018-09-10T04:49:54.181Z,12.07
2018-09-10T04:51:00.570Z,11.91
2018-09-10T04:52:07.326Z,11.82
2018-09-10T04:53:13.689Z,11.70
2018-09-10T04:54:20.124Z,11.60
2018-09-10T04:55:26.215Z,11.49
2018-09-10T04:56:32.613Z,11.48
2018-09-10T04:57:38.749Z,11.51
2018-09-10T04:58:45.120Z,11.50
2018-09-10T04:59:51.441Z,11.49
2018-09-10T05:00:57.555Z,11.55
2018-09-10T05:02:04.714Z,11.56
2018-09-10T05:03:11.127Z,11.56
2018-09-10T05:04:17.465Z,11.57
2018-09-10T05:05:24.060Z,11.55
2018-09-10T05:06:30.480Z,11.56
2018-09-10T05:07:36.749Z,11.61
2018-09-10T05:08:43.632Z,11.64
2018-09-10T05:09:50.074Z,11.71
2018-09-10T05:10:56.704Z,11.84
2018-09-10T05:12:03.115Z,11.86
2018-09-10T05:13:09.516Z,11.95
2018-09-10T05:14:15.976Z,11.98
2018-09-10T05:15:21.931Z,11.95
2018-09-10T05:16:29.002Z,11.96
2018-09-10T05:17:35.400Z,11.93
2018-09-10T05:18:41.871Z,11.84
2018-09-10T05:19:48.240Z,11.80
2018-09-10T05:20:54.541Z,11.77
2018-09-10T05:22:00.760Z,11.82
2018-09-10T05:23:07.270Z,11.82
2018-09-10T05:24:13.731Z,11.75
2018-09-10T05:25:19.966Z,11.77
2018-09-10T05:26:26.433Z,11.71
2018-09-10T05:27:32.821Z,11.80
2018-09-10T05:28:39.423Z,11.87
2018-09-10T05:29:46.214Z,11.81
2018-09-10T05:30:52.573Z,11.82
2018-09-10T05:31:59.328Z,11.78
2018-09-10T05:33:05.761Z,11.72
2018-09-10T05:34:12.037Z,11.73
2018-09-10T05:35:18.652Z,11.69
2018-09-10T05:36:25.109Z,11.79
2018-09-10T05:37:31.473Z,11.73
2018-09-10T05:38:37.812Z,11.85
2018-09-10T05:39:44.785Z,11.86
2018-09-10T05:40:51.198Z,11.88
2018-09-10T05:41:57.680Z,11.87
2018-09-10T05:43:04.129Z,11.77
2018-09-10T05:44:10.586Z,11.79
2018-09-10T05:45:16.752Z,11.93
2018-09-10T05:46:23.228Z,12.09
2018-09-10T05:47:29.562Z,12.04
2018-09-10T05:48:36.117Z,12.03
2018-09-10T05:49:42.533Z,12.15
2018-09-10T05:50:48.652Z,12.17
2018-09-10T05:51:54.984Z,12.18
2018-09-10T05:53:01.405Z,12.18
2018-09-10T05:54:08.278Z,12.23
2018-09-10T05:55:14.847Z,12.30
2018-09-10T05:56:21.179Z,12.39
2018-09-10T05:57:27.481Z,12.40
2018-09-10T05:58:34.880Z,12.43
2018-09-10T05:59:41.434Z,12.51
2018-09-10T06:00:47.845Z,12.50
2018-09-10T06:01:54.082Z,12.52
2018-09-10T06:03:00.772Z,12.54
2018-09-10T06:04:07.177Z,12.64
2018-09-10T06:05:13.505Z,12.67
2018-09-10T06:06:19.600Z,12.69
2018-09-10T06:07:25.935Z,12.74
2018-09-10T06:08:32.246Z,12.83
2018-09-10T06:09:38.514Z,12.94
2018-09-10T06:10:44.858Z,12.96
2018-09-10T06:11:51.173Z,12.94
2018-09-10T06:12:57.910Z,13.06
2018-09-10T06:14:04.128Z,13.08
2018-09-10T06:15:10.548Z,13.12
2018-09-10T06:16:17.628Z,13.25
2018-09-10T06:17:24.263Z,13.28
2018-09-10T06:18:30.546Z,13.32
2018-09-10T06:19:36.852Z,13.35
2018-09-10T06:20:43.162Z,13.51
2018-09-10T06:21:49.221Z,13.86
2018-09-10T06:22:55.607Z,14.09
2018-09-10T06:24:01.903Z,14.15
2018-09-10T06:25:08.365Z,14.18
2018-09-10T06:26:14.500Z,14.32
2018-09-10T06:27:20.973Z,14.36
2018-09-10T06:28:27.353Z,14.55
2018-09-10T06:29:33.764Z,14.69
2018-09-10T06:30:40.123Z,14.57
2018-09-10T06:31:46.518Z,14.52
2018-09-10T06:32:52.957Z,14.54
2018-09-10T06:33:58.994Z,14.54
2018-09-10T06:35:05.641Z,14.69
2018-09-10T06:36:12.095Z,14.77
2018-09-10T06:37:18.545Z,14.71
2018-09-10T06:38:25.317Z,14.70
2018-09-10T06:39:31.719Z,14.93
2018-09-10T06:40:38.006Z,14.94
2018-09-10T06:41:44.429Z,15.13
2018-09-10T06:42:50.787Z,15.18
2018-09-10T06:43:57.151Z,15.21
2018-09-10T06:45:04.310Z,15.37
2018-09-10T06:46:10.696Z,15.37
2018-09-10T06:47:17.120Z,15.58
2018-09-10T06:48:23.558Z,15.60
2018-09-10T06:49:29.848Z,15.49
2018-09-10T06:50:36.241Z,15.64
2018-09-10T06:51:42.665Z,15.75
2018-09-10T06:52:49.005Z,15.71
2018-09-10T06:53:55.283Z,15.81
2018-09-10T06:55:01.718Z,15.80
2018-09-10T06:56:07.320Z,15.99
2018-09-10T06:57:13.376Z,16.13
2018-09-10T06:58:19.849Z,16.15
2018-09-10T06:59:26.121Z,16.29
2018-09-10T07:00:32.510Z,16.41
2018-09-10T07:01:38.966Z,16.51
2018-09-10T07:02:45.275Z,16.58
2018-09-10T07:03:52.042Z,16.65
2018-09-10T07:04:58.397Z,16.65
2018-09-10T07:06:04.748Z,16.82
2018-09-10T07:07:11.133Z,16.93
2018-09-10T07:08:17.581Z,16.92
2018-09-10T07:09:23.884Z,16.97
2018-09-10T07:10:30.053Z,17.04
2018-09-10T07:11:36.529Z,17.19
2018-09-10T07:12:42.951Z,17.29
2018-09-10T07:13:49.634Z,17.28
2018-09-10T07:14:55.916Z,17.26
2018-09-10T07:16:02.275Z,17.34
2018-09-10T07:17:08.643Z,17.43
2018-09-10T07:18:15.100Z,17.43
2018-09-10T07:19:21.349Z,17.47
2018-09-10T07:20:27.493Z,17.51
2018-09-10T07:21:34.040Z,17.53
2018-09-10T07:22:40.449Z,17.61
2018-09-10T07:23:47.193Z,17.70
2018-09-10T07:24:53.469Z,17.59
2018-09-10T07:26:00.079Z,17.67
2018-09-10T07:27:06.129Z,17.73
2018-09-10T07:28:13.112Z,17.90
2018-09-10T07:29:19.519Z,17.92
2018-09-10T07:30:25.820Z,17.97
2018-09-10T07:31:32.213Z,18.11
2018-09-10T07:32:38.514Z,18.14
2018-09-10T07:33:44.919Z,18.26
2018-09-10T07:34:51.285Z,18.43
2018-09-10T07:35:57.421Z,18.52
2018-09-10T07:37:03.721Z,18.58
2018-09-10T07:38:10.062Z,18.60
2018-09-10T07:39:16.365Z,18.74
2018-09-10T07:40:22.761Z,18.79
2018-09-10T07:41:29.025Z,18.75
2018-09-10T07:42:35.354Z,18.79
2018-09-10T07:43:41.515Z,18.89
2018-09-10T07:44:47.580Z,18.93
2018-09-10T07:45:53.883Z,18.97
2018-09-10T07:46:59.797Z,18.88
2018-09-10T07:48:06.989Z,18.76
2018-09-10T07:49:13.351Z,18.79
2018-09-10T07:50:19.665Z,18.91
2018-09-10T07:51:25.916Z,19.04
2018-09-10T07:52:32.276Z,19.18
2018-09-10T07:53:38.617Z,19.27
2018-09-10T07:54:44.906Z,19.11
2018-09-10T07:55:51.319Z,19.25
2018-09-10T07:56:57.644Z,19.34
2018-09-10T07:58:04.023Z,19.52
2018-09-10T07:59:10.431Z,19.63
2018-09-10T08:00:16.874Z,19.52
2018-09-10T08:01:23.217Z,19.47
2018-09-10T08:02:29.441Z,19.40
2018-09-10T08:03:35.843Z,19.37
2018-09-10T08:04:41.797Z,19.40
2018-09-10T08:05:48.213Z,19.50
2018-09-10T08:06:54.208Z,19.57
2018-09-10T08:08:00.238Z,19.80
2018-09-10T08:09:05.686Z,19.84
2018-09-10T08:10:12.247Z,19.83
2018-09-10T08:11:18.671Z,19.90
2018-09-10T08:12:25.045Z,20.00
2018-09-10T08:13:31.317Z,19.99
2018-09-10T08:14:37.673Z,20.12
2018-09-10T08:15:44.021Z,19.96
2018-09-10T08:16:50.129Z,20.07
2018-09-10T08:17:56.428Z,20.31
2018-09-10T08:19:02.765Z,20.16
2018-09-10T08:20:08.369Z,20.19
2018-09-10T08:21:14.428Z,20.23
2018-09-10T08:22:20.873Z,20.41
2018-09-10T08:23:27.203Z,20.65
2018-09-10T08:24:33.553Z,20.73
2018-09-10T08:25:40.005Z,20.79
2018-09-10T08:26:46.320Z,20.79
2018-09-10T08:27:52.624Z,20.84
2018-09-10T08:28:58.975Z,20.82
2018-09-10T08:30:26.097Z,20.87
2018-09-10T08:31:32.521Z,20.99
2018-09-10T08:32:38.753Z,21.06
2018-09-10T08:33:45.009Z,21.11
2018-09-10T08:34:50.881Z,21.11
2018-09-10T08:35:57.168Z,21.16
2018-09-10T08:37:03.585Z,21.28
2018-09-10T08:38:09.807Z,21.35
2018-09-10T08:39:16.070Z,21.25
2018-09-10T08:40:22.014Z,21.30
2018-09-10T08:41:29.270Z,21.44
2018-09-10T08:42:34.864Z,21.42
2018-09-10T08:43:41.106Z,21.40
2018-09-10T08:44:46.799Z,21.49
2018-09-10T08:45:53.017Z,21.56
2018-09-10T08:46:59.376Z,21.42
2018-09-10T08:48:05.702Z,21.40
2018-09-10T08:49:11.828Z,21.45
2018-09-10T08:50:18.129Z,21.49
2018-09-10T08:51:23.821Z,21.60
2018-09-10T08:52:29.803Z,21.52
2018-09-10T08:53:35.941Z,21.62
2018-09-10T08:54:42.835Z,21.63
2018-09-10T08:55:49.416Z,21.55
2018-09-10T08:56:55.767Z,21.52
2018-09-10T08:58:02.113Z,21.65
2018-09-10T08:59:08.225Z,21.52
2018-09-10T09:00:14.295Z,21.69
2018-09-10T09:01:20.283Z,21.67
2018-09-10T09:02:26.650Z,21.76
2018-09-10T09:03:32.336Z,21.71
2018-09-10T09:04:38.779Z,21.84
2018-09-10T09:05:45.039Z,21.98
2018-09-10T09:06:51.388Z,22.00
2018-09-10T09:07:57.712Z,22.06
2018-09-10T09:09:03.735Z,21.99
2018-09-10T09:10:10.018Z,21.98
2018-09-10T09:11:16.287Z,22.13
2018-09-10T09:12:22.629Z,22.29
2018-09-10T09:13:28.913Z,22.25
2018-09-10T09:14:34.899Z,22.25
2018-09-10T09:15:41.236Z,22.32
2018-09-10T09:16:47.562Z,22.38
2018-09-10T09:17:53.868Z,22.51
2018-09-10T09:19:00.164Z,22.68
2018-09-10T09:20:06.369Z,22.54
2018-09-10T09:21:12.824Z,22.62
2018-09-10T09:22:19.126Z,22.78
2018-09-10T09:23:25.208Z,22.62
2018-09-10T09:24:31.695Z,22.57
2018-09-10T09:25:37.973Z,22.69
2018-09-10T09:26:44.251Z,22.76
2018-09-10T09:27:50.693Z,22.80
2018-09-10T09:28:57.030Z,22.74
2018-09-10T09:30:03.649Z,22.61
2018-09-10T09:31:10.220Z,22.76
2018-09-10T09:32:16.656Z,22.84
2018-09-10T09:33:22.964Z,22.86
2018-09-10T09:34:29.071Z,22.81
2018-09-10T09:35:35.260Z,22.87
2018-09-10T09:38:31.032Z,23.04
2018-09-10T09:40:04.932Z,23.02
2018-09-10T09:41:40.612Z,22.81
2018-09-10T09:43:05.675Z,23.03
2018-09-10T09:45:49.113Z,23.18
2018-09-10T09:46:55.473Z,23.12
2018-09-10T09:48:01.825Z,23.21
2018-09-10T09:49:08.103Z,23.19
2018-09-10T09:50:14.442Z,23.16
2018-09-10T09:51:20.789Z,23.00
2018-09-10T09:52:27.001Z,23.12
2018-09-10T09:53:33.312Z,23.09
2018-09-10T09:54:39.649Z,23.10
2018-09-10T09:55:46.001Z,23.06
2018-09-10T09:56:52.271Z,23.07
2018-09-10T09:57:58.598Z,23.12
2018-09-10T09:59:04.554Z,23.07
2018-09-10T10:00:10.331Z,23.19
2018-09-10T10:01:16.378Z,23.16
2018-09-10T10:02:22.424Z,23.10
2018-09-10T10:03:28.662Z,23.03
2018-09-10T10:04:35.047Z,22.79
2018-09-10T10:05:41.668Z,22.88
2018-09-10T10:06:47.987Z,23.10
2018-09-10T10:07:54.279Z,23.15
2018-09-10T10:09:00.584Z,22.98
2018-09-10T10:10:07.027Z,23.10
2018-09-10T10:11:13.717Z,23.14
2018-09-10T10:12:20.258Z,23.18
2018-09-10T10:13:26.840Z,23.17
2018-09-10T10:14:33.175Z,23.15
2018-09-10T10:15:39.504Z,23.18
2018-09-10T10:16:45.792Z,23.29
2018-09-10T10:17:52.093Z,23.37
2018-09-10T10:18:58.420Z,23.34
2018-09-10T10:20:04.770Z,23.25
2018-09-10T10:21:11.084Z,23.38
2018-09-10T10:22:17.352Z,23.57
2018-09-10T10:23:24.117Z,23.62
2018-09-10T10:24:30.494Z,23.64
2018-09-10T10:25:36.845Z,23.54
2018-09-10T10:26:43.121Z,23.54
2018-09-10T10:27:49.429Z,23.57
2018-09-10T10:28:55.735Z,23.54
2018-09-10T10:30:02.074Z,23.56
2018-09-10T10:31:08.284Z,23.52
2018-09-10T10:32:14.577Z,23.63
2018-09-10T10:33:20.929Z,23.66
2018-09-10T10:34:27.207Z,23.69
2018-09-10T10:35:33.639Z,23.63
2018-09-10T10:36:39.952Z,23.71
2018-09-10T10:37:46.244Z,23.95
2018-09-10T10:38:52.561Z,24.05
2018-09-10T10:39:58.906Z,24.23
2018-09-10T10:41:05.179Z,24.16
2018-09-10T10:42:11.460Z,24.16
2018-09-10T10:43:17.850Z,24.01
2018-09-10T10:44:24.117Z,24.18
2018-09-10T10:45:30.442Z,24.27
2018-09-10T10:46:36.752Z,24.16
2018-09-10T10:47:42.723Z,24.20
2018-09-10T10:48:48.942Z,24.10
2018-09-10T10:49:55.260Z,24.09
2018-09-10T10:51:01.392Z,24.19
2018-09-10T10:52:07.728Z,24.25
2018-09-10T10:53:14.011Z,24.16
2018-09-10T10:54:20.332Z,24.00
2018-09-10T10:55:26.608Z,23.96
2018-09-10T10:56:33.048Z,24.07
2018-09-10T10:57:39.449Z,24.15
2018-09-10T10:58:45.756Z,24.11
2018-09-10T10:59:51.957Z,24.16
2018-09-10T11:00:58.273Z,24.29
2018-09-10T11:02:04.611Z,24.23
2018-09-10T11:03:11.128Z,24.27
2018-09-10T11:04:17.604Z,24.30
2018-09-10T11:05:24.148Z,24.38
2018-09-10T11:06:30.458Z,24.38
2018-09-10T11:07:36.791Z,24.42
2018-09-10T11:08:43.177Z,24.55
2018-09-10T11:09:49.420Z,24.53
2018-09-10T11:10:55.668Z,24.62
2018-09-10T11:12:02.030Z,24.69
2018-09-10T11:13:08.284Z,24.80
2018-09-10T11:14:14.555Z,24.84
2018-09-10T11:15:20.757Z,24.88
2018-09-10T11:16:27.133Z,25.06
2018-09-10T11:17:33.693Z,25.22
2018-09-10T11:18:39.977Z,25.16
2018-09-10T11:19:46.219Z,25.31
2018-09-10T11:20:52.417Z,25.25
2018-09-10T11:21:58.765Z,25.11
2018-09-10T11:23:04.429Z,25.17
2018-09-10T11:24:10.767Z,25.15
2018-09-10T11:25:16.974Z,25.28
2018-09-10T11:26:23.245Z,25.38
2018-09-10T11:27:29.495Z,25.36
2018-09-10T11:28:35.730Z,25.37
2018-09-10T11:29:42.006Z,25.39
2018-09-10T11:30:48.287Z,25.52
2018-09-10T11:31:54.642Z,25.54
2018-09-10T11:33:00.715Z,25.54
2018-09-10T11:34:06.985Z,25.57
2018-09-10T11:35:13.213Z,25.55
2018-09-10T11:36:19.455Z,25.52
2018-09-10T11:37:25.713Z,25.48
2018-09-10T11:38:31.629Z,25.35
2018-09-10T11:39:37.689Z,25.43
2018-09-10T11:40:43.966Z,25.40
2018-09-10T11:41:50.780Z,25.36
2018-09-10T11:42:57.006Z,25.36
2018-09-10T11:44:03.264Z,25.26
2018-09-10T11:45:09.542Z,25.24
2018-09-10T11:46:15.848Z,25.33
2018-09-10T11:47:21.952Z,25.36
2018-09-10T11:48:28.365Z,25.54
2018-09-10T11:49:34.685Z,25.55
2018-09-10T11:50:40.997Z,25.53
2018-09-10T11:51:47.250Z,25.58
2018-09-10T11:52:53.537Z,25.77
2018-09-10T11:53:59.758Z,26.02
2018-09-10T11:55:05.368Z,25.99
2018-09-10T11:56:11.321Z,26.23
2018-09-10T11:57:17.578Z,26.30
2018-09-10T11:58:23.455Z,26.49
2018-09-10T11:59:29.336Z,26.60
2018-09-10T12:00:35.307Z,26.61
2018-09-10T12:01:41.574Z,26.70
2018-09-10T12:02:47.937Z,26.78
2018-09-10T12:03:54.076Z,26.80
2018-09-10T12:05:00.002Z,26.56
2018-09-10T12:06:05.960Z,26.80
2018-09-10T12:07:11.922Z,26.90
2018-09-10T12:08:18.161Z,26.90
2018-09-10T12:09:24.152Z,26.97
2018-09-10T12:10:30.113Z,27.00
2018-09-10T12:11:36.038Z,26.78
2018-09-10T12:12:42.011Z,26.81
2018-09-10T12:13:47.973Z,26.67
2018-09-10T12:14:53.896Z,26.69
2018-09-10T12:15:59.835Z,26.59
2018-09-10T12:17:04.814Z,26.37
2018-09-10T12:18:10.809Z,26.51
2018-09-10T12:19:16.780Z,26.51
2018-09-10T12:20:22.498Z,26.61
2018-09-10T12:21:28.613Z,26.66
2018-09-10T12:22:34.589Z,26.62
2018-09-10T12:23:40.792Z,26.65
2018-09-10T12:24:46.720Z,26.78
2018-09-10T12:25:52.650Z,26.79
2018-09-10T12:26:58.569Z,26.69
2018-09-10T12:28:04.181Z,26.47
2018-09-10T12:29:10.114Z,26.55
2018-09-10T12:30:16.356Z,26.51
2018-09-10T12:31:22.285Z,26.30
2018-09-10T12:32:28.564Z,26.44
2018-09-10T12:33:34.731Z,26.50
2018-09-10T12:34:40.701Z,26.66
2018-09-10T12:35:46.616Z,26.84
2018-09-10T12:36:52.578Z,26.81
2018-09-10T12:37:58.616Z,26.82
2018-09-10T12:39:03.955Z,26.69
2018-09-10T12:40:09.945Z,26.74
2018-09-10T12:41:17.365Z,26.80
2018-09-10T12:42:23.283Z,26.68
2018-09-10T12:43:29.231Z,26.85
2018-09-10T12:44:35.155Z,26.76
2018-09-10T12:45:41.084Z,26.89
2018-09-10T12:46:47.313Z,27.00
2018-09-10T12:47:53.362Z,27.09
2018-09-10T12:48:59.305Z,27.10
2018-09-10T12:50:04.540Z,26.99
2018-09-10T12:51:10.469Z,26.98
2018-09-10T12:52:16.705Z,27.02
2018-09-10T12:53:22.688Z,27.06
2018-09-10T12:54:28.646Z,27.34
2018-09-10T12:55:34.863Z,27.63
2018-09-10T12:56:40.797Z,27.67
2018-09-10T12:57:46.780Z,27.65
2018-09-10T12:58:52.775Z,27.77
2018-09-10T12:59:58.871Z,27.88
2018-09-10T13:01:04.797Z,27.83
2018-09-10T13:02:10.392Z,27.74
2018-09-10T13:03:16.340Z,27.90
2018-09-10T13:04:22.352Z,27.62
2018-09-10T13:05:28.225Z,27.78
2018-09-10T13:06:34.153Z,27.86
2018-09-10T13:07:39.853Z,27.52
2018-09-10T13:08:45.807Z,27.60
2018-09-10T13:09:52.029Z,27.78
2018-09-10T13:10:58.286Z,27.88
2018-09-10T13:12:04.209Z,27.95
2018-09-10T13:13:10.163Z,27.80
2018-09-10T13:14:17.228Z,27.70
2018-09-10T13:15:23.188Z,27.90
2018-09-10T13:16:29.146Z,27.99
2018-09-10T13:17:35.086Z,27.97
2018-09-10T13:18:41.050Z,27.82
2018-09-10T13:19:46.984Z,27.78
2018-09-10T13:20:52.909Z,27.60
2018-09-10T13:21:58.519Z,27.59
2018-09-10T13:23:04.136Z,27.59
2018-09-10T13:24:10.096Z,27.41
2018-09-10T13:25:16.032Z,27.44
2018-09-10T13:26:22.005Z,27.59
2018-09-10T13:27:27.938Z,27.54
2018-09-10T13:28:33.893Z,27.30
2018-09-10T13:29:39.933Z,27.19
2018-09-10T13:30:46.080Z,27.32
2018-09-10T13:31:52.003Z,27.27
2018-09-10T13:32:57.947Z,27.24
2018-09-10T13:34:03.922Z,27.20
2018-09-10T13:35:09.923Z,27.27
2018-09-10T13:36:15.879Z,27.22
2018-09-10T13:37:21.800Z,27.07
2018-09-10T13:38:27.799Z,26.96
2018-09-10T13:39:34.053Z,27.04
2018-09-10T13:40:40.021Z,27.09
2018-09-10T13:41:45.960Z,27.13
2018-09-10T13:42:51.894Z,27.06
2018-09-10T13:43:57.896Z,26.85
2018-09-10T13:45:03.836Z,26.81
2018-09-10T13:46:09.765Z,26.83
2018-09-10T13:47:15.995Z,26.76
2018-09-10T13:48:21.916Z,26.96
2018-09-10T13:49:27.652Z,27.04
2018-09-10T13:50:33.891Z,26.86
2018-09-10T13:51:39.815Z,26.96
2018-09-10T13:52:45.821Z,27.04
2018-09-10T13:53:51.766Z,27.05
2018-09-10T13:54:57.716Z,26.97
2018-09-10T13:56:03.576Z,26.77
2018-09-10T13:57:09.795Z,26.76
2018-09-10T13:58:15.751Z,26.95
2018-09-10T13:59:21.700Z,26.98
2018-09-10T14:00:27.647Z,26.93
2018-09-10T14:01:34.208Z,26.92
2018-09-10T14:02:40.185Z,26.89
2018-09-10T14:03:46.134Z,26.71
2018-09-10T14:04:52.403Z,26.86
2018-09-10T14:05:58.336Z,26.94
2018-09-10T14:07:04.608Z,26.93
2018-09-10T14:08:10.516Z,27.06
2018-09-10T14:09:16.457Z,27.00
2018-09-10T14:10:22.553Z,26.85
2018-09-10T14:11:28.541Z,26.76
2018-09-10T14:12:34.468Z,26.78
2018-09-10T14:13:40.686Z,26.78
2018-09-10T14:14:46.648Z,26.84
2018-09-10T14:15:52.609Z,26.84
2018-09-10T14:16:58.576Z,26.87
2018-09-10T14:18:04.865Z,26.83
2018-09-10T14:19:10.657Z,26.90
2018-09-10T14:20:16.604Z,26.84